Time;durP1;ratioP1;P1;durP2;ratioP2;P2;SDS_P1;SDS_P2;PMS_P1;PMS_P2;Temp;Humidity;BMP_temperature;BMP_pressure;BME280_temperature;BME280_humidity;BME280_pressure;Samples;Min_cycle;Max_cycle;Signal;HPM_P1;HPM_P2
2020/12/26 00:01:10;;;;;;;3.85;1.20;;;;;;;10.56;43.19;101813.38;5033268;28;20436;-45
2020/12/26 00:03:36;;;;;;;6.55;2.50;;;;;;;10.44;43.28;101804.34;5030760;28;20032;-48
2020/12/26 00:06:01;;;;;;;5.90;2.13;;;;;;;10.60;44.40;101813.78;5033454;28;20042;-49
2020/12/26 00:08:27;;;;;;;3.60;2.13;;;;;;;10.45;46.16;101803.34;5032966;28;20091;-46
2020/12/26 00:10:52;;;;;;;3.85;1.55;;;;;;;10.50;43.52;101806.19;5032925;28;20468;-45
2020/12/26 00:13:18;;;;;;;1.52;0.77;;;;;;;10.53;43.55;101802.25;5032742;28;20068;-44
2020/12/26 00:15:43;;;;;;;6.45;1.05;;;;;;;10.47;42.96;101800.44;5032888;28;20048;-48
2020/12/26 00:18:09;;;;;;;3.58;0.88;;;;;;;10.46;44.96;101796.09;5032760;28;20041;-46
2020/12/26 00:20:34;;;;;;;2.42;1.40;;;;;;;10.68;43.93;101794.78;5032845;28;20037;-46
2020/12/26 00:23:00;;;;;;;2.17;1.27;;;;;;;10.73;43.89;101797.63;5032816;28;20108;-46
2020/12/26 00:25:25;;;;;;;2.30;1.35;;;;;;;10.55;43.65;101817.13;5032696;28;20073;-43
2020/12/26 00:27:50;;;;;;;6.18;1.13;;;;;;;10.23;41.38;101795.53;5031844;28;20025;-44
2020/12/26 00:30:16;;;;;;;3.58;1.20;;;;;;;10.33;42.40;101800.47;5032260;28;20048;-44
2020/12/26 00:32:41;;;;;;;0.45;0.45;;;;;;;10.31;42.76;101802.56;5031603;28;20026;-42
2020/12/26 00:35:07;;;;;;;4.28;0.95;;;;;;;10.42;43.40;101798.38;5032315;28;20049;-44
2020/12/26 00:37:32;;;;;;;0.93;0.52;;;;;;;10.31;44.63;101782.91;5032164;28;20034;-48
2020/12/26 00:39:58;;;;;;;2.80;1.00;;;;;;;10.47;44.59;101784.34;5032221;28;20095;-44
2020/12/26 00:42:23;;;;;;;14.55;1.83;;;;;;;10.35;44.38;101781.50;5032017;28;20034;-47
2020/12/26 00:44:49;;;;;;;5.57;1.08;;;;;;;10.53;43.76;101786.97;5032303;28;20033;-45
2020/12/26 00:47:14;;;;;;;12.05;1.75;;;;;;;10.45;42.96;101778.34;5032732;28;20546;-47
2020/12/26 00:49:40;;;;;;;4.07;1.23;;;;;;;10.61;44.18;101772.53;5031970;28;20377;-44
2020/12/26 00:52:05;;;;;;;1.25;0.80;;;;;;;10.56;43.35;101775.84;5032305;28;20389;-42
2020/12/26 00:54:30;;;;;;;4.10;1.67;;;;;;;10.31;44.90;101761.47;5032161;28;20407;-43
2020/12/26 00:56:56;;;;;;;0.60;0.45;;;;;;;10.37;46.96;101764.16;5032361;28;20029;-43
2020/12/26 00:59:21;;;;;;;7.47;1.75;;;;;;;10.51;44.68;101756.06;5031939;28;20125;-42
2020/12/26 01:01:53;;;;;;;6.20;1.73;;;;;;;10.54;45.22;101758.31;5032267;28;20075;-43
2020/12/26 01:04:18;;;;;;;2.75;0.65;;;;;;;10.56;45.67;101756.25;5031618;28;20042;-45
2020/12/26 01:06:43;;;;;;;1.35;0.30;;;;;;;10.36;41.64;101746.44;5031045;28;20052;-42
2020/12/26 01:09:09;;;;;;;1.40;0.60;;;;;;;10.45;44.02;101752.38;5031795;28;20037;-45
2020/12/26 01:11:34;;;;;;;1.08;0.40;;;;;;;10.21;43.19;101757.38;5021473;28;20041;-42
2020/12/26 01:14:00;;;;;;;5.45;0.73;;;;;;;10.39;42.96;101761.28;5031863;28;20035;-44
2020/12/26 01:16:25;;;;;;;8.52;0.70;;;;;;;10.49;42.86;101766.19;5024874;28;20033;-43
2020/12/26 01:18:50;;;;;;;2.55;0.85;;;;;;;10.34;42.87;101761.09;5031710;28;20043;-43
2020/12/26 01:21:16;;;;;;;5.47;0.60;;;;;;;10.14;44.35;101770.00;5031522;28;20038;-42
2020/12/26 01:23:42;;;;;;;4.07;1.35;;;;;;;10.19;45.12;101770.19;5031343;28;20365;-42
2020/12/26 01:26:08;;;;;;;2.28;0.98;;;;;;;10.15;42.59;101768.97;5031260;28;20693;-43
2020/12/26 01:28:33;;;;;;;4.57;0.52;;;;;;;10.15;40.89;101768.13;5031581;28;20060;-44
2020/12/26 01:30:59;;;;;;;4.60;0.85;;;;;;;10.02;43.97;101769.81;5031551;28;20053;-44
2020/12/26 01:33:24;;;;;;;4.05;1.17;;;;;;;10.05;43.59;101778.50;5031089;28;20029;-43
2020/12/26 01:35:50;;;;;;;0.20;0.20;;;;;;;10.15;47.56;101779.69;5031276;28;20136;-42
2020/12/26 01:38:16;;;;;;;3.13;1.17;;;;;;;10.21;43.99;101762.75;5031379;28;20036;-43
2020/12/26 01:40:49;;;;;;;0.20;0.17;;;;;;;10.15;46.00;101768.97;5031324;28;20049;-42
2020/12/26 01:43:15;;;;;;;7.75;1.25;;;;;;;10.30;45.58;101778.59;5031267;28;20033;-42
2020/12/26 01:45:41;;;;;;;1.25;0.60;;;;;;;10.33;46.36;101775.53;5031110;28;20060;-43
2020/12/26 01:48:06;;;;;;;2.17;0.80;;;;;;;10.29;43.68;101759.03;5031282;28;20037;-44
2020/12/26 01:50:32;;;;;;;1.13;0.70;;;;;;;10.37;44.27;101760.66;5030700;28;20045;-43
2020/12/26 01:52:58;;;;;;;3.70;1.35;;;;;;;10.42;45.03;101762.72;5031299;28;20083;-42
2020/12/26 01:55:23;;;;;;;1.73;0.70;;;;;;;10.42;45.63;101763.53;5030704;28;20033;-43
2020/12/26 01:57:51;;;;;;;2.10;1.25;;;;;;;10.49;44.90;101769.69;5030799;28;20033;-42
2020/12/26 02:00:18;;;;;;;9.40;1.58;;;;;;;10.27;46.32;101768.31;5030483;28;20044;-43
2020/12/26 02:02:44;;;;;;;1.35;0.38;;;;;;;10.41;47.00;101761.88;5030844;28;20057;-45
2020/12/26 02:05:09;;;;;;;2.00;0.60;;;;;;;10.52;45.33;101763.09;5030421;28;20072;-42
2020/12/26 02:07:35;;;;;;;2.00;0.80;;;;;;;10.59;45.42;101763.88;5031021;28;20183;-43
2020/12/26 02:10:01;;;;;;;3.92;0.70;;;;;;;10.54;45.19;101752.97;5030869;28;20032;-43
2020/12/26 02:12:26;;;;;;;12.32;1.70;;;;;;;10.58;45.49;101755.00;5030980;28;20459;-43
2020/12/26 02:14:52;;;;;;;5.28;0.73;;;;;;;10.67;44.56;101763.59;5030714;28;20038;-42
2020/12/26 02:17:27;;;;;;;8.13;1.65;;;;;;;10.69;44.78;101764.22;5031114;28;20037;-43
2020/12/26 02:19:53;;;;;;;1.92;0.88;;;;;;;10.49;44.46;101761.66;5024694;28;20444;-43
2020/12/26 02:22:19;;;;;;;6.57;1.25;;;;;;;10.53;45.30;101762.84;5030893;28;20056;-43
2020/12/26 02:24:44;;;;;;;1.85;0.93;;;;;;;10.63;45.64;101751.66;5030165;28;20025;-43
2020/12/26 02:27:10;;;;;;;1.10;0.73;;;;;;;10.65;44.77;101764.88;5030192;28;20060;-42
2020/12/26 02:29:36;;;;;;;3.05;0.85;;;;;;;10.45;44.45;101748.88;5030790;28;20376;-42
2020/12/26 02:32:01;;;;;;;2.33;0.65;;;;;;;10.50;45.01;101749.88;5030344;28;20087;-43
2020/12/26 02:34:26;;;;;;;4.18;0.75;;;;;;;10.63;44.24;101748.19;5030477;28;20071;-42
2020/12/26 02:36:52;;;;;;;1.00;0.30;;;;;;;10.59;45.03;101747.78;5032843;28;20045;-42
2020/12/26 02:39:17;;;;;;;2.47;0.88;;;;;;;10.59;45.68;101743.22;5034410;28;20365;-43
2020/12/26 02:41:43;;;;;;;3.17;0.63;;;;;;;10.33;46.13;101740.69;5034913;28;20094;-42
2020/12/26 02:44:08;;;;;;;8.45;1.83;;;;;;;10.16;46.28;101746.47;5034676;28;20068;-44
2020/12/26 02:46:34;;;;;;;3.47;1.08;;;;;;;10.39;45.37;101743.31;5034625;28;20037;-42
2020/12/26 02:48:59;;;;;;;9.05;0.90;;;;;;;10.46;46.10;101737.94;5034475;28;20129;-43
2020/12/26 02:51:25;;;;;;;2.22;1.05;;;;;;;10.56;45.76;101735.63;5034462;28;20041;-42
2020/12/26 02:53:50;;;;;;;3.03;0.45;;;;;;;10.46;45.15;101731.75;5034531;28;20026;-43
2020/12/26 02:56:18;;;;;;;1.63;0.47;;;;;;;10.44;45.16;101734.66;5034242;28;20351;-43
2020/12/26 02:58:45;;;;;;;1.85;0.50;;;;;;;10.45;44.38;101727.41;5034436;28;20047;-41
2020/12/26 03:01:11;;;;;;;4.20;0.50;;;;;;;10.60;44.52;101731.44;5034350;28;20045;-42
2020/12/26 03:03:36;;;;;;;3.22;0.82;;;;;;;10.34;44.30;101723.56;5034187;28;20044;-41
2020/12/26 03:06:02;;;;;;;3.35;1.23;;;;;;;10.49;44.64;101721.41;5034264;28;20045;-43
2020/12/26 03:08:27;;;;;;;1.48;0.85;;;;;;;10.58;44.99;101722.00;5034500;28;20029;-42
2020/12/26 03:10:53;;;;;;;5.63;0.55;;;;;;;10.50;44.48;101723.06;5034283;28;20491;-44
2020/12/26 03:13:18;;;;;;;2.65;0.57;;;;;;;10.18;45.47;101716.78;5032773;28;20609;-43
2020/12/26 03:15:44;;;;;;;1.40;0.63;;;;;;;10.15;45.10;101709.16;5034042;28;20049;-42
2020/12/26 03:18:09;;;;;;;0.68;0.30;;;;;;;10.21;44.02;101713.69;5033655;28;20044;-43
2020/12/26 03:20:35;;;;;;;3.50;0.85;;;;;;;10.32;44.52;101714.91;5033849;28;20041;-42
2020/12/26 03:23:00;;;;;;;12.25;0.70;;;;;;;10.38;43.09;101714.06;5033302;28;20026;-44
2020/12/26 03:25:25;;;;;;;1.30;0.52;;;;;;;10.33;43.86;101708.53;5033889;28;20574;-43
2020/12/26 03:27:51;;;;;;;7.93;1.25;;;;;;;10.42;43.54;101709.91;5033971;28;20471;-42
2020/12/26 03:30:17;;;;;;;2.15;0.85;;;;;;;10.55;44.29;101715.22;5033748;28;20047;-43
2020/12/26 03:32:42;;;;;;;0.98;0.57;;;;;;;10.48;44.69;101706.34;5033349;28;20068;-42
2020/12/26 03:35:08;;;;;;;3.55;0.60;;;;;;;10.48;45.22;101709.03;5033144;28;20143;-42
2020/12/26 03:37:37;;;;;;;1.58;0.40;;;;;;;10.45;46.00;101709.50;5033350;28;20037;-43
2020/12/26 03:40:05;;;;;;;2.55;1.30;;;;;;;10.37;44.89;101704.38;5033811;28;20375;-43
2020/12/26 03:42:30;;;;;;;1.80;0.70;;;;;;;10.35;45.54;101703.75;5033459;28;20095;-42
2020/12/26 03:44:56;;;;;;;1.20;0.30;;;;;;;10.38;45.21;101712.19;5033040;28;20037;-45
2020/12/26 03:47:21;;;;;;;3.47;0.43;;;;;;;10.35;46.03;101706.44;5032492;28;20120;-43
2020/12/26 03:49:47;;;;;;;2.78;1.13;;;;;;;10.17;45.80;101697.22;5032946;28;20097;-44
2020/12/26 03:52:12;;;;;;;2.95;0.77;;;;;;;10.25;45.31;101708.72;5033340;28;20029;-43
2020/12/26 03:54:38;;;;;;;8.75;0.50;;;;;;;10.16;45.70;101706.28;5033083;28;20033;-43
2020/12/26 03:57:04;;;;;;;1.33;0.50;;;;;;;10.26;45.02;101705.03;5032192;28;20068;-44
2020/12/26 03:59:29;;;;;;;1.50;1.10;;;;;;;10.23;44.02;101696.34;5032778;28;20041;-44
2020/12/26 04:01:55;;;;;;;2.13;0.80;;;;;;;10.24;44.47;101705.22;5033410;28;20087;-45
2020/12/26 04:04:20;;;;;;;7.32;0.90;;;;;;;10.33;44.66;101701.28;5032673;28;20558;-43
2020/12/26 04:06:46;;;;;;;0.30;0.10;;;;;;;10.32;45.27;101704.19;5033124;28;20056;-43
2020/12/26 04:09:12;;;;;;;7.32;1.20;;;;;;;10.40;45.33;101706.63;5032583;28;20038;-45
2020/12/26 04:11:38;;;;;;;0.50;0.28;;;;;;;10.10;46.27;101695.59;5031389;28;20040;-43
2020/12/26 04:14:04;;;;;;;10.35;0.55;;;;;;;10.12;44.70;101704.25;5032506;28;20037;-46
2020/12/26 04:16:30;;;;;;;3.28;0.75;;;;;;;10.05;44.80;101711.50;5028041;28;20454;-45
2020/12/26 04:18:56;;;;;;;0.47;0.35;;;;;;;10.14;44.35;101703.00;5032217;28;20021;-49
2020/12/26 04:21:25;;;;;;;0.55;0.47;;;;;;;10.13;42.86;101700.53;5032501;28;20041;-45
2020/12/26 04:23:54;;;;;;;5.00;0.60;;;;;;;10.28;43.56;101702.94;5026255;28;20049;-48
2020/12/26 04:26:20;;;;;;;4.65;0.38;;;;;;;10.12;44.15;101696.22;5032783;28;20081;-49
2020/12/26 04:28:46;;;;;;;0.80;0.43;;;;;;;10.13;48.66;101689.81;5031970;28;20037;-50
2020/12/26 04:31:12;;;;;;;2.63;1.00;;;;;;;10.02;46.36;101699.34;5032733;28;20106;-48
2020/12/26 04:33:38;;;;;;;1.05;0.30;;;;;;;10.23;45.91;101704.38;5032621;28;20120;-44
2020/12/26 04:36:04;;;;;;;3.08;0.40;;;;;;;10.16;47.92;101689.38;5032370;28;20057;-46
2020/12/26 04:38:30;;;;;;;2.05;0.17;;;;;;;10.20;46.75;101694.13;5032223;28;20030;-44
2020/12/26 04:40:57;;;;;;;2.47;1.77;;;;;;;10.21;47.85;101695.75;5032709;28;20041;-44
2020/12/26 04:43:24;;;;;;;6.20;0.55;;;;;;;10.38;47.00;101693.44;5032086;28;20430;-48
2020/12/26 04:45:53;;;;;;;2.30;0.52;;;;;;;10.38;46.39;101684.56;5026228;28;20052;-46
2020/12/26 04:48:23;;;;;;;2.15;1.35;;;;;;;10.36;46.37;101700.88;5032333;28;20040;-49
2020/12/26 04:50:49;;;;;;;6.43;0.85;;;;;;;10.52;46.33;101701.41;5031984;28;20076;-47
2020/12/26 04:53:17;;;;;;;2.17;0.80;;;;;;;10.52;45.12;101704.09;5032396;28;20030;-48
2020/12/26 04:55:48;;;;;;;5.70;1.00;;;;;;;10.32;43.17;101709.53;5031847;28;20037;-46
2020/12/26 04:58:15;;;;;;;2.78;0.90;;;;;;;10.31;45.52;101710.53;5031869;28;20029;-47
2020/12/26 05:00:41;;;;;;;1.55;0.77;;;;;;;10.36;44.64;101716.97;5031133;28;20128;-44
2020/12/26 05:03:12;;;;;;;1.83;0.35;;;;;;;10.42;44.80;101717.94;5031926;28;20460;-45
2020/12/26 05:05:40;;;;;;;1.73;0.30;;;;;;;10.30;45.62;101722.31;5030341;28;20040;-44
2020/12/26 05:08:08;;;;;;;3.00;0.80;;;;;;;10.27;46.25;101722.72;5032356;28;20045;-46
2020/12/26 05:10:36;;;;;;;4.30;0.98;;;;;;;10.02;45.49;101726.13;5031454;28;20068;-47
2020/12/26 05:13:04;;;;;;;3.40;1.17;;;;;;;10.12;45.86;101723.00;5031816;28;20025;-49
2020/12/26 05:15:30;;;;;;;1.55;0.85;;;;;;;10.28;45.97;101729.75;5032000;28;20542;-45
2020/12/26 05:17:55;;;;;;;4.32;0.73;;;;;;;10.25;46.15;101739.03;5031639;28;20051;-46
2020/12/26 05:20:27;;;;;;;5.93;1.05;;;;;;;10.11;46.82;101734.75;5031525;28;20047;-45
2020/12/26 05:23:24;;;;;;;1.83;0.73;;;;;;;10.28;46.17;101745.84;5025383;28;20387;-49
2020/12/26 05:25:50;;;;;;;1.27;0.38;;;;;;;10.26;46.76;101739.88;5031692;28;20048;-47
2020/12/26 05:28:25;;;;;;;3.47;0.80;;;;;;;10.15;46.31;101744.00;5031090;28;20041;-45
2020/12/26 05:30:52;;;;;;;0.88;0.32;;;;;;;10.21;46.10;101741.31;5025148;28;20041;-49
2020/12/26 05:33:21;;;;;;;1.13;0.65;;;;;;;10.27;46.20;101739.63;5031332;28;20033;-46
2020/12/26 05:35:52;;;;;;;1.05;0.43;;;;;;;10.31;46.24;101754.31;5031272;28;20057;-45
2020/12/26 05:38:26;;;;;;;1.60;0.40;;;;;;;10.31;46.41;101754.31;5031119;28;20033;-47
2020/12/26 05:40:56;;;;;;;1.55;0.30;;;;;;;10.14;47.67;101750.41;5025297;28;20549;-48
2020/12/26 05:43:24;;;;;;;3.85;0.90;;;;;;;10.22;46.37;101755.56;5031273;28;20021;-47
2020/12/26 05:45:50;;;;;;;7.68;0.98;;;;;;;10.18;45.88;101755.13;5024801;28;20124;-46
2020/12/26 05:48:19;;;;;;;0.50;0.30;;;;;;;10.00;47.68;101746.97;5029276;28;20348;-48
2020/12/26 05:50:45;;;;;;;1.95;1.15;;;;;;;10.19;46.21;101770.19;5030124;28;20045;-46
2020/12/26 05:53:15;;;;;;;5.18;1.80;;;;;;;10.29;45.98;101766.22;5030845;28;20109;-44
2020/12/26 05:55:43;;;;;;;0.40;0.25;;;;;;;10.35;46.40;101773.47;5029885;28;20041;-44
2020/12/26 05:58:10;;;;;;;6.15;1.70;;;;;;;10.08;47.05;101768.19;5025914;28;20065;-45
2020/12/26 06:00:41;;;;;;;3.30;0.75;;;;;;;10.16;47.66;101759.88;5028682;28;20118;-43
2020/12/26 06:03:26;;;;;;;1.55;0.75;;;;;;;9.95;47.64;101765.53;5030862;28;20040;-44
2020/12/26 06:05:55;;;;;;;5.03;1.77;;;;;;;9.97;47.45;101766.13;5030915;28;20049;-43
2020/12/26 06:08:21;;;;;;;3.22;0.95;;;;;;;10.11;46.74;101766.91;5030836;28;20041;-46
2020/12/26 06:10:52;;;;;;;0.85;0.43;;;;;;;10.12;47.02;101765.91;5030838;28;20038;-45
2020/12/26 06:13:21;;;;;;;6.53;1.17;;;;;;;10.14;47.51;101767.31;5031200;28;20538;-44
2020/12/26 06:16:06;;;;;;;2.70;0.95;;;;;;;10.12;46.91;101773.94;5030874;28;20045;-44
2020/12/26 06:18:31;;;;;;;4.50;0.85;;;;;;;10.20;46.92;101771.84;5024110;28;20041;-44
2020/12/26 06:20:57;;;;;;;1.38;0.63;;;;;;;10.22;46.51;101772.44;5029940;28;20042;-46
2020/12/26 06:23:24;;;;;;;3.20;0.93;;;;;;;10.06;46.49;101780.94;5029566;28;20468;-45
2020/12/26 06:25:52;;;;;;;2.47;1.05;;;;;;;10.09;47.45;101780.53;5024326;28;20049;-44
2020/12/26 06:28:30;;;;;;;0.35;0.20;;;;;;;9.98;46.68;101782.00;5030878;28;20432;-46
2020/12/26 06:31:00;;;;;;;1.63;1.02;;;;;;;10.11;46.20;101780.31;5025244;28;20051;-45
2020/12/26 06:33:29;;;;;;;4.90;0.40;;;;;;;10.23;45.83;101787.47;5030689;28;20046;-46
2020/12/26 06:35:57;;;;;;;5.97;1.20;;;;;;;10.21;44.97;101784.19;5030528;28;20061;-46
2020/12/26 06:38:28;;;;;;;4.22;1.42;;;;;;;10.17;45.03;101793.69;5030623;28;20033;-44
2020/12/26 06:40:55;;;;;;;3.10;0.75;;;;;;;10.33;44.72;101794.31;5024658;28;20034;-44
2020/12/26 06:43:54;;;;;;;3.00;0.52;;;;;;;10.23;44.40;101798.19;5030012;28;20034;-44
2020/12/26 06:46:22;;;;;;;0.40;0.30;;;;;;;10.14;44.62;101794.13;5015431;28;20519;-45
2020/12/26 06:48:55;;;;;;;10.43;1.45;;;;;;;10.28;44.85;101804.81;5030601;28;20030;-45
2020/12/26 06:51:21;;;;;;;7.88;0.98;;;;;;;10.15;45.62;101803.81;5030121;28;20052;-43
2020/12/26 06:53:46;;;;;;;2.15;0.63;;;;;;;10.33;45.26;101799.66;5030165;28;20029;-44
2020/12/26 06:56:34;;;;;;;4.28;1.83;;;;;;;10.13;48.24;101807.72;5030258;28;20083;-45
2020/12/26 06:59:13;;;;;;;5.18;1.35;;;;;;;10.33;45.51;101821.13;5025565;28;20041;-44
2020/12/26 07:01:45;;;;;;;6.43;2.72;;;;;;;10.22;46.11;101818.03;5029248;28;20041;-47
2020/12/26 07:04:13;;;;;;;7.82;1.23;;;;;;;10.30;46.04;101818.81;5030350;28;20034;-44
2020/12/26 07:06:39;;;;;;;2.58;1.15;;;;;;;10.28;45.98;101794.91;5024166;28;20450;-46
2020/12/26 07:09:05;;;;;;;2.83;0.38;;;;;;;10.34;45.78;101810.19;5030234;28;20033;-45
2020/12/26 07:11:31;;;;;;;0.43;0.25;;;;;;;10.41;45.35;101812.81;5030334;28;20049;-45
2020/12/26 07:13:57;;;;;;;8.05;1.98;;;;;;;10.36;45.26;101821.50;5028937;28;20091;-44
2020/12/26 07:16:39;;;;;;;5.75;1.50;;;;;;;10.24;45.03;101825.84;5030238;28;20049;-43
2020/12/26 07:19:21;;;;;;;3.92;0.43;;;;;;;10.23;45.19;101825.00;5026310;28;20422;-44
2020/12/26 07:21:56;;;;;;;;;;;;;;;10.35;44.98;101821.72;5026240;28;20041;-45
2020/12/26 07:24:24;;;;;;;5.03;0.95;;;;;;;10.40;44.90;101825.41;5033409;28;19920;-46
2020/12/26 07:26:51;;;;;;;4.20;1.45;;;;;;;10.44;45.19;101825.00;5027469;28;20107;-43
2020/12/26 07:29:27;;;;;;;10.32;0.93;;;;;;;10.09;43.71;101828.75;5033098;28;20036;-44
2020/12/26 07:31:54;;;;;;;9.07;1.02;;;;;;;10.16;47.46;101828.75;5027853;28;20041;-43
2020/12/26 07:34:38;;;;;;;1.55;0.65;;;;;;;10.28;44.79;101829.75;5033124;28;20042;-43
2020/12/26 07:37:05;;;;;;;3.17;2.72;;;;;;;10.27;43.41;101824.59;5029289;28;20039;-43
2020/12/26 07:39:30;;;;;;;6.32;2.20;;;;;;;10.39;42.65;101823.75;5033533;28;20041;-46
2020/12/26 07:41:56;;;;;;;3.92;1.33;;;;;;;10.50;42.95;101818.75;5033852;28;20041;-42
2020/12/26 07:44:31;;;;;;;4.55;2.45;;;;;;;10.53;43.26;101816.47;5033407;28;20033;-43
2020/12/26 07:46:57;;;;;;;5.88;2.80;;;;;;;10.38;42.92;101826.66;5027985;28;20496;-43
2020/12/26 07:49:24;;;;;;;2.75;0.90;;;;;;;10.38;43.84;101826.66;5032954;28;20030;-43
2020/12/26 07:52:07;;;;;;;2.22;1.25;;;;;;;10.44;43.00;101830.34;5032839;28;20551;-44
2020/12/26 07:54:32;;;;;;;3.28;0.90;;;;;;;10.51;42.94;101825.78;5033091;28;20095;-46
2020/12/26 07:56:58;;;;;;;3.63;1.45;;;;;;;10.49;42.66;101834.03;5033103;28;20046;-43
2020/12/26 07:59:24;;;;;;;1.48;0.77;;;;;;;10.38;41.40;101848.94;5030974;28;20064;-43
2020/12/26 08:01:54;;;;;;;13.85;1.88;;;;;;;10.34;42.90;101842.34;5027066;28;20120;-46
2020/12/26 08:04:20;;;;;;;4.10;1.20;;;;;;;10.19;42.39;101855.97;5032814;28;20450;-44
2020/12/26 08:06:47;;;;;;;5.35;1.15;;;;;;;10.20;41.34;101864.81;5033344;28;20045;-45
2020/12/26 08:09:14;;;;;;;3.45;0.80;;;;;;;10.15;44.63;101868.13;5032955;28;20033;-44
2020/12/26 08:11:40;;;;;;;3.97;1.65;;;;;;;10.34;41.76;101865.63;5032401;28;20064;-43
2020/12/26 08:14:06;;;;;;;5.25;1.15;;;;;;;10.20;42.08;101881.75;5032922;28;20076;-45
2020/12/26 08:16:32;;;;;;;1.90;0.65;;;;;;;10.21;41.92;101885.22;5032844;28;20056;-44
2020/12/26 08:19:00;;;;;;;4.65;1.35;;;;;;;10.40;42.42;101883.56;5032287;28;20041;-43
2020/12/26 08:21:26;;;;;;;1.55;1.10;;;;;;;10.24;41.17;101890.19;5030790;28;20034;-44
2020/12/26 08:24:00;;;;;;;4.80;0.70;;;;;;;10.38;40.73;101889.16;5032961;28;20129;-43
2020/12/26 08:26:26;;;;;;;4.70;0.85;;;;;;;10.49;41.05;101893.03;5032943;28;20052;-44
2020/12/26 08:28:58;;;;;;;0.77;0.30;;;;;;;10.52;40.64;101903.34;5032806;28;20029;-44
2020/12/26 08:31:24;;;;;;;2.55;1.10;;;;;;;10.42;40.90;101902.97;5032525;28;20049;-44
2020/12/26 08:34:17;;;;;;;3.60;1.38;;;;;;;10.57;41.10;101916.09;5025828;28;20255;-46
2020/12/26 08:37:09;;;;;;;1.85;0.90;;;;;;;10.51;40.65;101925.81;5031698;28;20128;-45
2020/12/26 08:39:36;;;;;;;2.13;0.85;;;;;;;10.33;39.54;101923.00;5032166;28;20034;-43
2020/12/26 08:42:03;;;;;;;3.80;0.98;;;;;;;10.36;40.21;101930.59;5032527;28;20464;-47
2020/12/26 08:44:31;;;;;;;5.40;0.82;;;;;;;10.29;41.25;101927.91;5032284;28;20033;-42
2020/12/26 08:46:57;;;;;;;3.05;1.05;;;;;;;10.50;39.44;101920.66;5032368;28;20029;-43
2020/12/26 08:49:22;;;;;;;0.98;0.45;;;;;;;10.37;42.51;101922.34;5031892;28;20029;-43
2020/12/26 08:51:48;;;;;;;0.88;0.60;;;;;;;10.35;42.74;101921.72;5032262;28;20041;-43
2020/12/26 08:54:21;;;;;;;0.73;0.35;;;;;;;10.44;42.30;101927.69;5031985;28;20475;-42
2020/12/26 08:56:47;;;;;;;1.98;1.27;;;;;;;10.36;41.15;101933.28;5028742;28;20038;-43
2020/12/26 08:59:13;;;;;;;3.00;1.42;;;;;;;10.51;40.76;101933.06;5024203;28;20079;-43
2020/12/26 09:01:39;;;;;;;8.63;1.17;;;;;;;10.52;38.00;101932.03;5030526;28;20046;-42
2020/12/26 09:04:14;;;;;;;4.55;1.42;;;;;;;10.60;39.67;101937.16;5032022;28;20033;-43
2020/12/26 09:06:42;;;;;;;1.85;0.90;;;;;;;10.60;38.10;101931.78;5030914;28;20129;-42
2020/12/26 09:09:21;;;;;;;2.95;2.15;;;;;;;10.70;39.31;101945.59;5031523;28;20033;-43
2020/12/26 09:11:47;;;;;;;5.60;0.98;;;;;;;10.67;38.76;101947.88;5031651;28;20079;-44
2020/12/26 09:14:20;;;;;;;10.40;0.88;;;;;;;10.55;39.42;101940.47;5030887;28;20029;-42
2020/12/26 09:16:47;;;;;;;3.95;0.77;;;;;;;10.64;39.18;101942.91;5019371;28;20045;-44
2020/12/26 09:19:12;;;;;;;2.42;0.90;;;;;;;10.61;39.56;101952.22;5025220;28;20511;-45
2020/12/26 09:21:38;;;;;;;0.43;0.28;;;;;;;10.63;41.14;101947.47;5026254;28;20034;-43
2020/12/26 09:24:16;;;;;;;6.55;3.67;;;;;;;10.68;37.91;101958.38;5026951;28;20029;-43
2020/12/26 09:26:42;;;;;;;1.95;1.27;;;;;;;10.73;38.05;101963.94;5026746;28;20044;-43
2020/12/26 09:29:07;;;;;;;1.42;1.02;;;;;;;10.74;40.08;101968.25;5026463;28;20029;-43
2020/12/26 09:31:38;;;;;;;1.75;0.73;;;;;;;10.82;38.68;101967.22;5024107;28;20049;-45
2020/12/26 09:34:22;;;;;;;1.00;0.85;;;;;;;10.84;37.62;101958.97;5024675;28;20053;-48
2020/12/26 09:37:02;;;;;;;1.33;0.60;;;;;;;10.86;39.76;101983.72;5025802;28;20067;-43
2020/12/26 09:39:27;;;;;;;2.20;1.75;;;;;;;10.71;36.95;101979.44;5025719;28;20037;-45
2020/12/26 09:41:53;;;;;;;3.25;1.65;;;;;;;10.94;37.60;101976.28;5021123;28;20054;-43
2020/12/26 09:44:19;;;;;;;2.05;1.75;;;;;;;11.00;38.32;101968.41;5026471;28;20029;-45
2020/12/26 09:46:45;;;;;;;5.80;0.70;;;;;;;11.05;37.25;101966.72;5027638;28;20144;-46
2020/12/26 09:49:10;;;;;;;1.23;0.77;;;;;;;11.02;39.75;101972.53;5027044;28;20139;-44
2020/12/26 09:51:36;;;;;;;3.17;1.52;;;;;;;11.69;36.15;101966.81;5028145;28;20076;-44
2020/12/26 09:54:03;;;;;;;4.55;1.98;;;;;;;11.76;36.38;101966.78;5027804;28;20171;-45
2020/12/26 09:56:29;;;;;;;2.28;1.23;;;;;;;11.75;34.70;101965.97;5027925;28;20120;-44
2020/12/26 09:58:56;;;;;;;8.13;7.43;;;;;;;11.72;34.96;101975.25;5027990;28;20116;-45
2020/12/26 10:01:22;;;;;;;4.80;1.73;;;;;;;11.79;34.04;101975.22;5026468;28;20049;-43
2020/12/26 10:03:49;;;;;;;4.65;1.55;;;;;;;11.72;34.48;101983.31;5026735;28;20033;-44
2020/12/26 10:06:17;;;;;;;2.88;2.13;;;;;;;11.65;34.91;101976.34;5028174;28;20127;-43
2020/12/26 10:08:44;;;;;;;2.50;1.73;;;;;;;11.54;35.28;101988.63;5027420;28;20388;-43
2020/12/26 10:11:14;;;;;;;3.97;1.10;;;;;;;11.43;35.96;101989.28;5027995;28;20045;-43
2020/12/26 10:13:40;;;;;;;4.50;2.00;;;;;;;11.45;35.86;101989.91;5025546;28;20052;-43
2020/12/26 10:16:06;;;;;;;3.08;1.85;;;;;;;11.49;36.34;101985.75;5027720;28;20052;-43
2020/12/26 10:18:31;;;;;;;5.72;2.95;;;;;;;11.48;36.05;101994.81;5023323;28;20033;-46
2020/12/26 10:20:57;;;;;;;2.33;1.17;;;;;;;11.47;36.68;101991.31;5020819;28;20042;-43
2020/12/26 10:23:23;;;;;;;4.88;3.40;;;;;;;11.44;37.59;102002.50;5012437;28;20034;-43
2020/12/26 10:25:49;;;;;;;23.02;3.97;;;;;;;11.50;37.58;101998.13;5026543;28;20392;-50
2020/12/26 10:28:16;;;;;;;5.53;2.25;;;;;;;11.53;38.53;101992.31;5025204;28;20648;-44
2020/12/26 10:30:41;;;;;;;2.65;1.10;;;;;;;11.52;38.96;101990.69;5027528;28;20140;-44
2020/12/26 10:33:06;;;;;;;5.45;1.98;;;;;;;11.39;38.79;101983.50;5025498;28;20033;-42
2020/12/26 10:35:32;;;;;;;5.35;1.70;;;;;;;11.42;38.21;101983.09;5021776;28;20172;-43
2020/12/26 10:37:57;;;;;;;11.63;8.30;;;;;;;11.46;38.21;101972.75;5024890;28;20129;-44
2020/12/26 10:40:23;;;;;;;6.05;2.92;;;;;;;11.39;38.38;101967.41;5026101;28;20531;-42
2020/12/26 10:42:48;;;;;;;7.78;1.95;;;;;;;11.31;39.40;101967.66;5026979;28;20389;-44
2020/12/26 10:45:14;;;;;;;6.80;1.52;;;;;;;11.45;38.27;101958.50;5025319;28;20467;-44
2020/12/26 10:47:39;;;;;;;4.50;1.35;;;;;;;11.47;38.32;101955.59;5018249;28;20034;-43
2020/12/26 10:50:05;;;;;;;8.88;2.08;;;;;;;11.54;37.97;101948.31;5022748;28;20037;-43
2020/12/26 10:52:32;;;;;;;4.20;2.72;;;;;;;11.61;38.48;101934.84;5020252;28;20073;-47
2020/12/26 10:54:57;;;;;;;4.65;1.67;;;;;;;11.72;36.64;101940.34;5021724;28;20033;-43
2020/12/26 10:57:23;;;;;;;9.50;2.65;;;;;;;11.95;36.54;101943.50;5012963;28;20137;-46
2020/12/26 10:59:48;;;;;;;7.22;3.03;;;;;;;12.02;37.21;101949.66;5014956;28;20061;-46
2020/12/26 11:02:14;;;;;;;5.40;3.38;;;;;;;12.08;36.39;101951.47;5015133;28;20096;-42
2020/12/26 11:04:39;;;;;;;4.53;2.20;;;;;;;12.10;36.26;101947.53;5016054;28;20045;-42
2020/12/26 11:07:05;;;;;;;29.70;20.95;;;;;;;12.12;37.21;101947.31;5014921;28;20042;-42
2020/12/26 11:09:30;;;;;;;5.20;4.15;;;;;;;12.04;36.69;101939.50;5029833;28;20140;-42
2020/12/26 11:11:56;;;;;;;4.55;2.40;;;;;;;12.00;37.63;101943.69;5031269;28;20033;-43
2020/12/26 11:14:21;;;;;;;9.10;1.58;;;;;;;12.03;37.48;101936.00;5031019;28;20048;-62
2020/12/26 11:16:51;;;;;;;5.93;1.85;;;;;;;12.18;38.30;101942.91;5031147;28;20541;-63
2020/12/26 11:19:17;;;;;;;6.45;3.42;;;;;;;12.07;38.66;101931.81;5031144;28;20076;-61
2020/12/26 11:21:44;;;;;;;13.30;8.55;;;;;;;11.86;38.84;101938.38;5027202;28;20045;-62
2020/12/26 11:24:10;;;;;;;7.32;4.13;;;;;;;12.00;39.84;101941.81;5029095;28;20407;-62
2020/12/26 11:26:36;;;;;;;8.77;4.30;;;;;;;12.24;39.17;101929.41;5031092;28;20132;-62